sensor_id;sensor_type;location;lat;lon;timestamp;P1;durP1;ratioP1;P2;durP2;ratioP2
59302;SDS011;45074;52.764;6.896;2023-04-25T00:00:33;16.80;;;4.85;;
59302;SDS011;45074;52.764;6.896;2023-04-25T00:02:59;14.40;;;4.70;;
59302;SDS011;45074;52.764;6.896;2023-04-25T00:05:26;14.30;;;4.55;;
59302;SDS011;45074;52.764;6.896;2023-04-25T00:07:52;13.77;;;4.85;;
59302;SDS011;45074;52.764;6.896;2023-04-25T00:10:19;19.45;;;4.95;;
59302;SDS011;45074;52.764;6.896;2023-04-25T00:12:45;17.58;;;5.25;;
59302;SDS011;45074;52.764;6.896;2023-04-25T00:15:11;16.38;;;4.93;;
59302;SDS011;45074;52.764;6.896;2023-04-25T00:17:37;14.88;;;4.10;;
59302;SDS011;45074;52.764;6.896;2023-04-25T00:20:03;16.42;;;4.50;;
59302;SDS011;45074;52.764;6.896;2023-04-25T00:22:30;20.02;;;4.72;;
59302;SDS011;45074;52.764;6.896;2023-04-25T00:24:56;18.77;;;4.50;;
59302;SDS011;45074;52.764;6.896;2023-04-25T00:27:25;14.77;;;4.32;;
59302;SDS011;45074;52.764;6.896;2023-04-25T00:29:51;15.10;;;4.63;;
59302;SDS011;45074;52.764;6.896;2023-04-25T00:32:17;15.95;;;4.03;;
59302;SDS011;45074;52.764;6.896;2023-04-25T00:34:43;20.15;;;4.13;;
59302;SDS011;45074;52.764;6.896;2023-04-25T00:37:09;14.65;;;4.25;;
59302;SDS011;45074;52.764;6.896;2023-04-25T00:39:35;15.35;;;4.78;;
59302;SDS011;45074;52.764;6.896;2023-04-25T00:42:01;17.27;;;4.95;;
59302;SDS011;45074;52.764;6.896;2023-04-25T00:44:28;15.63;;;4.55;;
59302;SDS011;45074;52.764;6.896;2023-04-25T00:46:55;12.75;;;4.28;;
59302;SDS011;45074;52.764;6.896;2023-04-25T00:49:21;16.02;;;4.07;;
59302;SDS011;45074;52.764;6.896;2023-04-25T00:51:47;15.85;;;4.47;;
59302;SDS011;45074;52.764;6.896;2023-04-25T00:54:13;15.35;;;3.97;;
59302;SDS011;45074;52.764;6.896;2023-04-25T00:56:40;17.00;;;4.60;;
59302;SDS011;45074;52.764;6.896;2023-04-25T00:59:06;15.75;;;4.47;;
59302;SDS011;45074;52.764;6.896;2023-04-25T01:01:33;14.88;;;4.65;;
59302;SDS011;45074;52.764;6.896;2023-04-25T01:04:00;17.02;;;4.82;;
59302;SDS011;45074;52.764;6.896;2023-04-25T01:06:26;15.05;;;4.65;;
59302;SDS011;45074;52.764;6.896;2023-04-25T01:08:52;14.52;;;4.78;;
59302;SDS011;45074;52.764;6.896;2023-04-25T01:11:18;18.73;;;4.57;;
59302;SDS011;45074;52.764;6.896;2023-04-25T01:13:44;15.13;;;4.60;;
59302;SDS011;45074;52.764;6.896;2023-04-25T01:16:11;17.83;;;5.22;;
59302;SDS011;45074;52.764;6.896;2023-04-25T01:18:38;16.80;;;4.72;;
59302;SDS011;45074;52.764;6.896;2023-04-25T01:21:08;19.77;;;4.82;;
59302;SDS011;45074;52.764;6.896;2023-04-25T01:23:36;17.20;;;5.28;;
59302;SDS011;45074;52.764;6.896;2023-04-25T01:26:03;12.90;;;4.28;;
59302;SDS011;45074;52.764;6.896;2023-04-25T01:28:29;15.07;;;4.97;;
59302;SDS011;45074;52.764;6.896;2023-04-25T01:30:56;18.67;;;4.63;;
59302;SDS011;45074;52.764;6.896;2023-04-25T01:33:22;15.20;;;4.03;;
59302;SDS011;45074;52.764;6.896;2023-04-25T01:35:48;15.27;;;4.88;;
59302;SDS011;45074;52.764;6.896;2023-04-25T01:38:14;15.75;;;4.82;;
59302;SDS011;45074;52.764;6.896;2023-04-25T01:40:40;13.57;;;4.20;;
59302;SDS011;45074;52.764;6.896;2023-04-25T01:43:07;13.55;;;3.92;;
59302;SDS011;45074;52.764;6.896;2023-04-25T01:45:36;14.55;;;4.30;;
59302;SDS011;45074;52.764;6.896;2023-04-25T01:48:06;16.02;;;4.57;;
59302;SDS011;45074;52.764;6.896;2023-04-25T01:50:33;14.40;;;4.35;;
59302;SDS011;45074;52.764;6.896;2023-04-25T01:52:59;17.98;;;4.57;;
59302;SDS011;45074;52.764;6.896;2023-04-25T01:55:27;14.80;;;4.82;;
59302;SDS011;45074;52.764;6.896;2023-04-25T01:57:53;13.02;;;4.07;;
59302;SDS011;45074;52.764;6.896;2023-04-25T02:00:18;13.43;;;4.65;;
59302;SDS011;45074;52.764;6.896;2023-04-25T02:02:44;15.60;;;4.43;;
59302;SDS011;45074;52.764;6.896;2023-04-25T02:05:10;17.42;;;4.72;;
59302;SDS011;45074;52.764;6.896;2023-04-25T02:07:37;14.38;;;4.93;;
59302;SDS011;45074;52.764;6.896;2023-04-25T02:10:03;15.57;;;4.93;;
59302;SDS011;45074;52.764;6.896;2023-04-25T02:12:31;17.70;;;4.70;;
59302;SDS011;45074;52.764;6.896;2023-04-25T02:14:57;15.63;;;5.07;;
59302;SDS011;45074;52.764;6.896;2023-04-25T02:17:23;19.00;;;5.28;;
59302;SDS011;45074;52.764;6.896;2023-04-25T02:19:49;15.57;;;4.32;;
59302;SDS011;45074;52.764;6.896;2023-04-25T02:22:15;19.35;;;5.38;;
59302;SDS011;45074;52.764;6.896;2023-04-25T02:24:41;18.67;;;4.75;;
59302;SDS011;45074;52.764;6.896;2023-04-25T02:27:07;18.67;;;4.68;;
59302;SDS011;45074;52.764;6.896;2023-04-25T02:29:33;13.10;;;4.38;;
59302;SDS011;45074;52.764;6.896;2023-04-25T02:31:59;18.20;;;5.15;;
59302;SDS011;45074;52.764;6.896;2023-04-25T02:34:25;15.77;;;4.63;;
59302;SDS011;45074;52.764;6.896;2023-04-25T02:36:52;18.40;;;4.63;;
59302;SDS011;45074;52.764;6.896;2023-04-25T02:39:18;14.73;;;4.32;;
59302;SDS011;45074;52.764;6.896;2023-04-25T02:41:47;16.80;;;4.78;;
59302;SDS011;45074;52.764;6.896;2023-04-25T02:44:13;14.40;;;4.95;;
59302;SDS011;45074;52.764;6.896;2023-04-25T02:46:39;14.77;;;4.47;;
59302;SDS011;45074;52.764;6.896;2023-04-25T02:49:05;19.33;;;5.20;;
59302;SDS011;45074;52.764;6.896;2023-04-25T02:51:31;14.98;;;4.82;;
59302;SDS011;45074;52.764;6.896;2023-04-25T02:53:57;16.35;;;4.40;;
59302;SDS011;45074;52.764;6.896;2023-04-25T02:56:23;15.02;;;4.13;;
59302;SDS011;45074;52.764;6.896;2023-04-25T02:58:51;17.25;;;4.55;;
59302;SDS011;45074;52.764;6.896;2023-04-25T03:01:17;14.68;;;4.75;;
59302;SDS011;45074;52.764;6.896;2023-04-25T03:03:43;15.48;;;4.63;;
59302;SDS011;45074;52.764;6.896;2023-04-25T03:06:09;15.27;;;4.43;;
59302;SDS011;45074;52.764;6.896;2023-04-25T03:08:35;15.57;;;4.72;;
59302;SDS011;45074;52.764;6.896;2023-04-25T03:11:01;14.38;;;4.50;;
59302;SDS011;45074;52.764;6.896;2023-04-25T03:13:27;14.73;;;3.90;;
59302;SDS011;45074;52.764;6.896;2023-04-25T03:15:54;18.27;;;5.05;;
59302;SDS011;45074;52.764;6.896;2023-04-25T03:18:20;11.68;;;3.72;;
59302;SDS011;45074;52.764;6.896;2023-04-25T03:20:46;12.85;;;4.18;;
59302;SDS011;45074;52.764;6.896;2023-04-25T03:23:12;15.13;;;4.55;;
59302;SDS011;45074;52.764;6.896;2023-04-25T03:25:38;13.77;;;4.55;;
59302;SDS011;45074;52.764;6.896;2023-04-25T03:28:04;20.90;;;4.18;;
59302;SDS011;45074;52.764;6.896;2023-04-25T03:30:30;12.20;;;3.90;;
59302;SDS011;45074;52.764;6.896;2023-04-25T03:32:56;17.25;;;3.92;;
59302;SDS011;45074;52.764;6.896;2023-04-25T03:35:22;16.38;;;4.35;;
59302;SDS011;45074;52.764;6.896;2023-04-25T03:37:48;15.60;;;3.65;;
59302;SDS011;45074;52.764;6.896;2023-04-25T03:40:14;14.32;;;3.75;;
59302;SDS011;45074;52.764;6.896;2023-04-25T03:42:40;14.45;;;4.13;;
59302;SDS011;45074;52.764;6.896;2023-04-25T03:45:07;13.43;;;3.67;;
59302;SDS011;45074;52.764;6.896;2023-04-25T03:47:33;14.65;;;3.13;;
59302;SDS011;45074;52.764;6.896;2023-04-25T03:49:59;12.95;;;3.45;;
59302;SDS011;45074;52.764;6.896;2023-04-25T03:52:26;14.32;;;3.60;;
59302;SDS011;45074;52.764;6.896;2023-04-25T03:54:52;15.35;;;3.42;;
59302;SDS011;45074;52.764;6.896;2023-04-25T03:57:18;16.60;;;3.53;;
59302;SDS011;45074;52.764;6.896;2023-04-25T03:59:44;17.70;;;3.58;;
59302;SDS011;45074;52.764;6.896;2023-04-25T04:02:10;16.23;;;3.45;;
59302;SDS011;45074;52.764;6.896;2023-04-25T04:04:36;15.02;;;3.50;;
59302;SDS011;45074;52.764;6.896;2023-04-25T04:07:02;14.93;;;3.13;;
59302;SDS011;45074;52.764;6.896;2023-04-25T04:09:28;13.85;;;3.03;;
59302;SDS011;45074;52.764;6.896;2023-04-25T04:11:54;10.63;;;3.05;;
59302;SDS011;45074;52.764;6.896;2023-04-25T04:14:20;11.88;;;3.25;;
59302;SDS011;45074;52.764;6.896;2023-04-25T04:16:46;13.48;;;3.13;;
59302;SDS011;45074;52.764;6.896;2023-04-25T04:19:12;15.13;;;3.20;;
59302;SDS011;45074;52.764;6.896;2023-04-25T04:21:38;15.98;;;3.25;;
59302;SDS011;45074;52.764;6.896;2023-04-25T04:24:05;11.82;;;3.15;;
59302;SDS011;45074;52.764;6.896;2023-04-25T04:26:31;12.27;;;3.15;;
59302;SDS011;45074;52.764;6.896;2023-04-25T04:28:57;15.65;;;3.20;;
59302;SDS011;45074;52.764;6.896;2023-04-25T04:31:24;10.60;;;2.95;;
59302;SDS011;45074;52.764;6.896;2023-04-25T04:33:50;12.50;;;2.83;;
59302;SDS011;45074;52.764;6.896;2023-04-25T04:36:16;11.90;;;2.50;;
59302;SDS011;45074;52.764;6.896;2023-04-25T04:38:47;10.80;;;2.97;;
59302;SDS011;45074;52.764;6.896;2023-04-25T04:41:13;10.85;;;2.40;;
59302;SDS011;45074;52.764;6.896;2023-04-25T04:43:39;9.23;;;2.45;;
59302;SDS011;45074;52.764;6.896;2023-04-25T04:46:05;9.50;;;2.40;;
59302;SDS011;45074;52.764;6.896;2023-04-25T04:48:31;10.93;;;2.78;;
59302;SDS011;45074;52.764;6.896;2023-04-25T04:50:59;8.50;;;2.15;;
59302;SDS011;45074;52.764;6.896;2023-04-25T04:53:25;10.77;;;2.30;;
59302;SDS011;45074;52.764;6.896;2023-04-25T04:55:51;10.88;;;2.50;;
59302;SDS011;45074;52.764;6.896;2023-04-25T04:58:17;8.75;;;2.30;;
59302;SDS011;45074;52.764;6.896;2023-04-25T05:00:44;8.20;;;2.15;;
59302;SDS011;45074;52.764;6.896;2023-04-25T05:03:10;11.38;;;2.15;;
59302;SDS011;45074;52.764;6.896;2023-04-25T05:05:36;11.20;;;2.42;;
59302;SDS011;45074;52.764;6.896;2023-04-25T05:08:05;9.98;;;3.40;;
59302;SDS011;45074;52.764;6.896;2023-04-25T05:10:31;8.98;;;2.30;;
59302;SDS011;45074;52.764;6.896;2023-04-25T05:12:57;10.65;;;2.40;;
59302;SDS011;45074;52.764;6.896;2023-04-25T05:15:22;8.55;;;2.20;;
59302;SDS011;45074;52.764;6.896;2023-04-25T05:17:48;6.70;;;2.05;;
59302;SDS011;45074;52.764;6.896;2023-04-25T05:20:14;10.00;;;2.53;;
59302;SDS011;45074;52.764;6.896;2023-04-25T05:22:40;6.95;;;2.05;;
59302;SDS011;45074;52.764;6.896;2023-04-25T05:25:07;7.65;;;2.03;;
59302;SDS011;45074;52.764;6.896;2023-04-25T05:27:34;10.13;;;2.25;;
59302;SDS011;45074;52.764;6.896;2023-04-25T05:30:00;8.13;;;2.08;;
59302;SDS011;45074;52.764;6.896;2023-04-25T05:32:26;9.05;;;2.03;;
59302;SDS011;45074;52.764;6.896;2023-04-25T05:34:52;9.25;;;2.50;;
59302;SDS011;45074;52.764;6.896;2023-04-25T05:37:18;8.52;;;2.20;;
59302;SDS011;45074;52.764;6.896;2023-04-25T05:39:44;9.70;;;2.40;;
59302;SDS011;45074;52.764;6.896;2023-04-25T05:42:10;9.10;;;2.08;;
59302;SDS011;45074;52.764;6.896;2023-04-25T05:44:36;10.13;;;2.20;;
59302;SDS011;45074;52.764;6.896;2023-04-25T05:47:02;6.72;;;2.20;;
59302;SDS011;45074;52.764;6.896;2023-04-25T05:49:30;8.20;;;2.65;;
59302;SDS011;45074;52.764;6.896;2023-04-25T05:51:56;8.45;;;2.20;;
59302;SDS011;45074;52.764;6.896;2023-04-25T05:54:22;7.15;;;2.05;;
59302;SDS011;45074;52.764;6.896;2023-04-25T05:56:48;7.65;;;2.42;;
59302;SDS011;45074;52.764;6.896;2023-04-25T05:59:14;9.52;;;2.20;;
59302;SDS011;45074;52.764;6.896;2023-04-25T06:01:40;9.43;;;2.30;;
59302;SDS011;45074;52.764;6.896;2023-04-25T06:04:06;9.88;;;2.20;;
59302;SDS011;45074;52.764;6.896;2023-04-25T06:06:32;9.30;;;2.20;;
59302;SDS011;45074;52.764;6.896;2023-04-25T06:08:58;9.43;;;2.40;;
59302;SDS011;45074;52.764;6.896;2023-04-25T06:11:24;10.07;;;2.45;;
59302;SDS011;45074;52.764;6.896;2023-04-25T06:13:50;10.98;;;2.42;;
59302;SDS011;45074;52.764;6.896;2023-04-25T06:16:16;7.68;;;2.30;;
59302;SDS011;45074;52.764;6.896;2023-04-25T06:18:42;9.85;;;2.47;;
59302;SDS011;45074;52.764;6.896;2023-04-25T06:21:08;9.63;;;2.60;;
59302;SDS011;45074;52.764;6.896;2023-04-25T06:23:34;8.50;;;2.03;;
59302;SDS011;45074;52.764;6.896;2023-04-25T06:26:00;8.32;;;2.17;;
59302;SDS011;45074;52.764;6.896;2023-04-25T06:28:26;7.93;;;2.42;;
59302;SDS011;45074;52.764;6.896;2023-04-25T06:30:52;10.55;;;2.13;;
59302;SDS011;45074;52.764;6.896;2023-04-25T06:33:18;11.98;;;2.22;;
59302;SDS011;45074;52.764;6.896;2023-04-25T06:35:45;10.77;;;2.60;;
59302;SDS011;45074;52.764;6.896;2023-04-25T06:38:11;11.70;;;2.40;;
59302;SDS011;45074;52.764;6.896;2023-04-25T06:40:37;10.75;;;2.45;;
59302;SDS011;45074;52.764;6.896;2023-04-25T06:43:03;9.52;;;2.45;;
59302;SDS011;45074;52.764;6.896;2023-04-25T06:45:29;10.23;;;2.47;;
59302;SDS011;45074;52.764;6.896;2023-04-25T06:47:56;10.13;;;2.45;;
59302;SDS011;45074;52.764;6.896;2023-04-25T06:50:22;10.05;;;2.40;;
59302;SDS011;45074;52.764;6.896;2023-04-25T06:52:48;12.68;;;2.95;;
59302;SDS011;45074;52.764;6.896;2023-04-25T06:55:14;9.65;;;2.33;;
59302;SDS011;45074;52.764;6.896;2023-04-25T06:57:40;10.55;;;2.15;;
59302;SDS011;45074;52.764;6.896;2023-04-25T07:00:06;8.57;;;2.33;;
59302;SDS011;45074;52.764;6.896;2023-04-25T07:02:34;12.73;;;2.33;;
59302;SDS011;45074;52.764;6.896;2023-04-25T07:05:00;12.65;;;2.83;;
59302;SDS011;45074;52.764;6.896;2023-04-25T07:07:29;9.75;;;2.22;;
59302;SDS011;45074;52.764;6.896;2023-04-25T07:09:55;10.25;;;2.50;;
59302;SDS011;45074;52.764;6.896;2023-04-25T07:12:21;10.55;;;2.20;;
59302;SDS011;45074;52.764;6.896;2023-04-25T07:14:47;8.95;;;2.40;;
59302;SDS011;45074;52.764;6.896;2023-04-25T07:17:13;10.10;;;2.25;;
59302;SDS011;45074;52.764;6.896;2023-04-25T07:19:40;8.93;;;2.20;;
59302;SDS011;45074;52.764;6.896;2023-04-25T07:22:06;7.25;;;1.70;;
59302;SDS011;45074;52.764;6.896;2023-04-25T07:24:33;9.68;;;2.35;;
59302;SDS011;45074;52.764;6.896;2023-04-25T07:26:59;10.73;;;2.22;;
59302;SDS011;45074;52.764;6.896;2023-04-25T07:29:26;11.27;;;2.50;;
59302;SDS011;45074;52.764;6.896;2023-04-25T07:31:52;7.95;;;2.13;;
59302;SDS011;45074;52.764;6.896;2023-04-25T07:34:18;10.95;;;1.98;;
59302;SDS011;45074;52.764;6.896;2023-04-25T07:36:44;12.65;;;1.98;;
59302;SDS011;45074;52.764;6.896;2023-04-25T07:39:10;7.35;;;1.70;;
59302;SDS011;45074;52.764;6.896;2023-04-25T07:41:36;7.53;;;1.90;;
59302;SDS011;45074;52.764;6.896;2023-04-25T07:44:02;7.32;;;1.90;;
59302;SDS011;45074;52.764;6.896;2023-04-25T07:46:28;6.38;;;1.77;;
59302;SDS011;45074;52.764;6.896;2023-04-25T07:48:54;5.20;;;1.50;;
59302;SDS011;45074;52.764;6.896;2023-04-25T07:51:20;10.45;;;1.77;;
59302;SDS011;45074;52.764;6.896;2023-04-25T07:53:47;7.25;;;1.85;;
59302;SDS011;45074;52.764;6.896;2023-04-25T07:56:13;5.20;;;1.70;;
59302;SDS011;45074;52.764;6.896;2023-04-25T07:58:38;10.23;;;1.80;;
59302;SDS011;45074;52.764;6.896;2023-04-25T08:01:04;8.93;;;1.98;;
59302;SDS011;45074;52.764;6.896;2023-04-25T08:03:31;9.20;;;1.70;;
59302;SDS011;45074;52.764;6.896;2023-04-25T08:05:56;8.32;;;1.75;;
59302;SDS011;45074;52.764;6.896;2023-04-25T08:08:22;6.90;;;1.90;;
59302;SDS011;45074;52.764;6.896;2023-04-25T08:10:48;7.75;;;2.10;;
59302;SDS011;45074;52.764;6.896;2023-04-25T08:13:15;9.48;;;2.15;;
59302;SDS011;45074;52.764;6.896;2023-04-25T08:15:41;7.85;;;2.03;;
59302;SDS011;45074;52.764;6.896;2023-04-25T08:18:07;7.45;;;1.70;;
59302;SDS011;45074;52.764;6.896;2023-04-25T08:20:33;7.25;;;1.40;;
59302;SDS011;45074;52.764;6.896;2023-04-25T08:22:59;8.07;;;1.70;;
59302;SDS011;45074;52.764;6.896;2023-04-25T08:25:25;6.45;;;1.30;;
59302;SDS011;45074;52.764;6.896;2023-04-25T08:27:51;7.53;;;1.45;;
59302;SDS011;45074;52.764;6.896;2023-04-25T08:30:17;8.05;;;1.70;;
59302;SDS011;45074;52.764;6.896;2023-04-25T08:32:43;5.30;;;1.60;;
59302;SDS011;45074;52.764;6.896;2023-04-25T08:35:09;6.63;;;1.40;;
59302;SDS011;45074;52.764;6.896;2023-04-25T08:37:36;6.40;;;1.38;;
59302;SDS011;45074;52.764;6.896;2023-04-25T08:40:03;8.05;;;1.63;;
59302;SDS011;45074;52.764;6.896;2023-04-25T08:42:32;7.20;;;2.10;;
59302;SDS011;45074;52.764;6.896;2023-04-25T08:45:02;8.48;;;1.60;;
59302;SDS011;45074;52.764;6.896;2023-04-25T08:47:28;7.00;;;1.85;;
59302;SDS011;45074;52.764;6.896;2023-04-25T08:49:58;6.57;;;1.35;;
59302;SDS011;45074;52.764;6.896;2023-04-25T08:52:25;3.60;;;1.33;;
59302;SDS011;45074;52.764;6.896;2023-04-25T08:54:55;5.93;;;1.50;;
59302;SDS011;45074;52.764;6.896;2023-04-25T08:57:22;5.75;;;1.30;;
59302;SDS011;45074;52.764;6.896;2023-04-25T08:59:48;4.88;;;1.25;;
59302;SDS011;45074;52.764;6.896;2023-04-25T09:02:14;5.68;;;1.42;;
59302;SDS011;45074;52.764;6.896;2023-04-25T09:04:43;4.95;;;1.30;;
59302;SDS011;45074;52.764;6.896;2023-04-25T09:07:09;6.38;;;1.30;;
59302;SDS011;45074;52.764;6.896;2023-04-25T09:09:35;7.35;;;1.45;;
59302;SDS011;45074;52.764;6.896;2023-04-25T09:12:01;4.72;;;1.23;;
59302;SDS011;45074;52.764;6.896;2023-04-25T09:14:28;5.50;;;1.30;;
59302;SDS011;45074;52.764;6.896;2023-04-25T09:19:27;4.50;;;1.40;;
59302;SDS011;45074;52.764;6.896;2023-04-25T09:24:33;5.55;;;1.30;;
59302;SDS011;45074;52.764;6.896;2023-04-25T09:27:04;7.78;;;1.50;;
59302;SDS011;45074;52.764;6.896;2023-04-25T09:29:34;6.97;;;1.45;;
59302;SDS011;45074;52.764;6.896;2023-04-25T09:32:20;5.05;;;1.30;;
59302;SDS011;45074;52.764;6.896;2023-04-25T09:34:50;5.18;;;1.30;;
59302;SDS011;45074;52.764;6.896;2023-04-25T09:39:47;6.00;;;1.58;;
59302;SDS011;45074;52.764;6.896;2023-04-25T09:42:15;6.40;;;1.35;;
59302;SDS011;45074;52.764;6.896;2023-04-25T09:44:45;5.03;;;1.30;;
59302;SDS011;45074;52.764;6.896;2023-04-25T09:47:15;5.38;;;1.40;;
59302;SDS011;45074;52.764;6.896;2023-04-25T09:49:43;5.82;;;1.30;;
59302;SDS011;45074;52.764;6.896;2023-04-25T09:52:13;5.35;;;1.15;;
59302;SDS011;45074;52.764;6.896;2023-04-25T09:57:15;4.00;;;0.90;;
59302;SDS011;45074;52.764;6.896;2023-04-25T09:59:51;4.75;;;1.27;;
59302;SDS011;45074;52.764;6.896;2023-04-25T10:02:19;4.82;;;1.30;;
59302;SDS011;45074;52.764;6.896;2023-04-25T10:04:50;4.78;;;1.30;;
59302;SDS011;45074;52.764;6.896;2023-04-25T10:09:47;6.75;;;1.52;;
59302;SDS011;45074;52.764;6.896;2023-04-25T10:12:15;7.15;;;1.50;;
59302;SDS011;45074;52.764;6.896;2023-04-25T10:14:42;4.72;;;1.33;;
59302;SDS011;45074;52.764;6.896;2023-04-25T10:17:09;3.83;;;1.48;;
59302;SDS011;45074;52.764;6.896;2023-04-25T10:19:36;4.78;;;1.20;;
59302;SDS011;45074;52.764;6.896;2023-04-25T10:22:13;7.25;;;1.35;;
59302;SDS011;45074;52.764;6.896;2023-04-25T10:24:42;4.53;;;1.17;;
59302;SDS011;45074;52.764;6.896;2023-04-25T10:27:09;5.38;;;1.13;;
59302;SDS011;45074;52.764;6.896;2023-04-25T10:29:36;5.13;;;1.35;;
59302;SDS011;45074;52.764;6.896;2023-04-25T10:32:02;5.45;;;1.30;;
59302;SDS011;45074;52.764;6.896;2023-04-25T10:34:38;5.07;;;1.35;;
59302;SDS011;45074;52.764;6.896;2023-04-25T10:37:05;5.25;;;1.40;;
59302;SDS011;45074;52.764;6.896;2023-04-25T10:39:34;4.82;;;1.25;;
59302;SDS011;45074;52.764;6.896;2023-04-25T10:42:01;8.57;;;1.98;;
59302;SDS011;45074;52.764;6.896;2023-04-25T10:44:30;7.00;;;1.40;;
59302;SDS011;45074;52.764;6.896;2023-04-25T10:46:57;5.75;;;1.40;;
59302;SDS011;45074;52.764;6.896;2023-04-25T10:49:30;7.57;;;1.70;;
59302;SDS011;45074;52.764;6.896;2023-04-25T10:52:10;6.95;;;1.80;;
59302;SDS011;45074;52.764;6.896;2023-04-25T10:55:03;4.75;;;1.40;;
59302;SDS011;45074;52.764;6.896;2023-04-25T10:57:29;4.53;;;1.58;;
59302;SDS011;45074;52.764;6.896;2023-04-25T11:03:15;6.97;;;1.45;;
59302;SDS011;45074;52.764;6.896;2023-04-25T11:05:33;6.50;;;1.50;;
59302;SDS011;45074;52.764;6.896;2023-04-25T11:08:00;4.40;;;1.15;;
59302;SDS011;45074;52.764;6.896;2023-04-25T11:10:27;5.70;;;1.50;;
59302;SDS011;45074;52.764;6.896;2023-04-25T11:12:55;5.65;;;1.45;;
59302;SDS011;45074;52.764;6.896;2023-04-25T11:15:21;4.80;;;1.50;;
59302;SDS011;45074;52.764;6.896;2023-04-25T11:17:47;3.60;;;1.27;;
59302;SDS011;45074;52.764;6.896;2023-04-25T11:20:13;4.35;;;1.50;;
59302;SDS011;45074;52.764;6.896;2023-04-25T11:22:40;5.15;;;1.27;;
59302;SDS011;45074;52.764;6.896;2023-04-25T11:25:07;6.75;;;1.60;;
59302;SDS011;45074;52.764;6.896;2023-04-25T11:27:34;5.93;;;1.60;;
59302;SDS011;45074;52.764;6.896;2023-04-25T11:30:13;4.40;;;1.50;;
59302;SDS011;45074;52.764;6.896;2023-04-25T11:32:40;6.88;;;1.80;;
59302;SDS011;45074;52.764;6.896;2023-04-25T11:35:07;6.28;;;1.60;;
59302;SDS011;45074;52.764;6.896;2023-04-25T11:37:33;8.18;;;1.85;;
59302;SDS011;45074;52.764;6.896;2023-04-25T11:39:59;9.60;;;1.95;;
59302;SDS011;45074;52.764;6.896;2023-04-25T11:42:26;6.93;;;1.80;;
59302;SDS011;45074;52.764;6.896;2023-04-25T11:44:52;6.50;;;1.70;;
59302;SDS011;45074;52.764;6.896;2023-04-25T11:47:18;7.68;;;1.92;;
59302;SDS011;45074;52.764;6.896;2023-04-25T11:49:44;7.57;;;1.40;;
59302;SDS011;45074;52.764;6.896;2023-04-25T11:52:10;4.80;;;1.38;;
59302;SDS011;45074;52.764;6.896;2023-04-25T11:54:36;5.90;;;1.83;;
59302;SDS011;45074;52.764;6.896;2023-04-25T11:57:03;4.43;;;1.20;;
59302;SDS011;45074;52.764;6.896;2023-04-25T11:59:29;5.65;;;1.30;;
59302;SDS011;45074;52.764;6.896;2023-04-25T12:01:55;4.88;;;1.38;;
59302;SDS011;45074;52.764;6.896;2023-04-25T12:04:23;6.65;;;2.20;;
59302;SDS011;45074;52.764;6.896;2023-04-25T12:06:53;6.28;;;1.40;;
59302;SDS011;45074;52.764;6.896;2023-04-25T12:09:20;4.45;;;1.50;;
59302;SDS011;45074;52.764;6.896;2023-04-25T12:11:53;7.07;;;1.50;;
59302;SDS011;45074;52.764;6.896;2023-04-25T12:14:21;6.32;;;1.50;;
59302;SDS011;45074;52.764;6.896;2023-04-25T12:16:52;5.35;;;1.23;;
59302;SDS011;45074;52.764;6.896;2023-04-25T12:19:19;5.82;;;1.30;;
59302;SDS011;45074;52.764;6.896;2023-04-25T12:21:45;5.13;;;1.35;;
59302;SDS011;45074;52.764;6.896;2023-04-25T12:24:12;5.80;;;1.30;;
59302;SDS011;45074;52.764;6.896;2023-04-25T12:26:46;5.93;;;1.48;;
59302;SDS011;45074;52.764;6.896;2023-04-25T12:29:19;6.75;;;2.17;;
59302;SDS011;45074;52.764;6.896;2023-04-25T12:31:46;8.55;;;1.48;;
59302;SDS011;45074;52.764;6.896;2023-04-25T12:34:13;7.13;;;1.60;;
59302;SDS011;45074;52.764;6.896;2023-04-25T12:36:39;7.82;;;1.50;;
59302;SDS011;45074;52.764;6.896;2023-04-25T12:39:05;5.40;;;1.80;;
59302;SDS011;45074;52.764;6.896;2023-04-25T12:41:32;9.60;;;1.60;;
59302;SDS011;45074;52.764;6.896;2023-04-25T12:43:58;7.53;;;1.40;;
59302;SDS011;45074;52.764;6.896;2023-04-25T12:46:24;4.53;;;1.20;;
59302;SDS011;45074;52.764;6.896;2023-04-25T12:48:50;8.40;;;1.60;;
59302;SDS011;45074;52.764;6.896;2023-04-25T12:51:16;6.75;;;1.60;;
59302;SDS011;45074;52.764;6.896;2023-04-25T12:53:42;6.57;;;1.45;;
59302;SDS011;45074;52.764;6.896;2023-04-25T12:56:08;9.30;;;1.60;;
59302;SDS011;45074;52.764;6.896;2023-04-25T12:58:34;5.50;;;1.50;;
59302;SDS011;45074;52.764;6.896;2023-04-25T13:01:00;4.60;;;1.75;;
59302;SDS011;45074;52.764;6.896;2023-04-25T13:03:26;5.50;;;1.50;;
59302;SDS011;45074;52.764;6.896;2023-04-25T13:05:52;5.47;;;1.40;;
59302;SDS011;45074;52.764;6.896;2023-04-25T13:08:19;4.82;;;1.50;;
59302;SDS011;45074;52.764;6.896;2023-04-25T13:10:45;4.20;;;1.30;;
59302;SDS011;45074;52.764;6.896;2023-04-25T13:13:11;5.13;;;1.40;;
59302;SDS011;45074;52.764;6.896;2023-04-25T13:15:38;6.38;;;1.50;;
59302;SDS011;45074;52.764;6.896;2023-04-25T13:18:04;6.32;;;1.75;;
59302;SDS011;45074;52.764;6.896;2023-04-25T13:20:33;7.18;;;1.52;;
59302;SDS011;45074;52.764;6.896;2023-04-25T13:22:59;4.80;;;1.40;;
59302;SDS011;45074;52.764;6.896;2023-04-25T13:25:25;5.55;;;1.70;;
59302;SDS011;45074;52.764;6.896;2023-04-25T13:27:51;5.47;;;1.48;;
59302;SDS011;45074;52.764;6.896;2023-04-25T13:30:17;4.43;;;1.38;;
59302;SDS011;45074;52.764;6.896;2023-04-25T13:32:43;5.07;;;1.60;;
59302;SDS011;45074;52.764;6.896;2023-04-25T13:35:13;5.07;;;1.30;;
59302;SDS011;45074;52.764;6.896;2023-04-25T13:37:39;4.38;;;1.40;;
59302;SDS011;45074;52.764;6.896;2023-04-25T13:40:08;5.15;;;1.60;;
59302;SDS011;45074;52.764;6.896;2023-04-25T13:45:02;7.20;;;1.65;;
59302;SDS011;45074;52.764;6.896;2023-04-25T13:47:28;6.70;;;1.70;;
59302;SDS011;45074;52.764;6.896;2023-04-25T13:49:55;5.97;;;1.60;;
59302;SDS011;45074;52.764;6.896;2023-04-25T13:52:21;6.95;;;1.50;;
59302;SDS011;45074;52.764;6.896;2023-04-25T13:54:49;5.82;;;1.50;;
59302;SDS011;45074;52.764;6.896;2023-04-25T13:57:15;7.97;;;1.90;;
59302;SDS011;45074;52.764;6.896;2023-04-25T13:59:41;4.40;;;1.35;;
59302;SDS011;45074;52.764;6.896;2023-04-25T14:02:08;5.65;;;1.60;;
59302;SDS011;45074;52.764;6.896;2023-04-25T14:04:34;5.82;;;1.42;;
59302;SDS011;45074;52.764;6.896;2023-04-25T14:07:00;5.97;;;1.40;;
59302;SDS011;45074;52.764;6.896;2023-04-25T14:09:27;6.15;;;1.40;;
59302;SDS011;45074;52.764;6.896;2023-04-25T14:11:53;6.65;;;1.58;;
59302;SDS011;45074;52.764;6.896;2023-04-25T14:14:20;5.88;;;1.50;;
59302;SDS011;45074;52.764;6.896;2023-04-25T14:16:46;4.78;;;1.30;;
59302;SDS011;45074;52.764;6.896;2023-04-25T14:19:17;5.07;;;1.25;;
59302;SDS011;45074;52.764;6.896;2023-04-25T14:21:43;3.97;;;1.17;;
59302;SDS011;45074;52.764;6.896;2023-04-25T14:24:09;7.72;;;1.40;;
59302;SDS011;45074;52.764;6.896;2023-04-25T14:26:38;5.07;;;1.10;;
59302;SDS011;45074;52.764;6.896;2023-04-25T14:29:05;5.70;;;1.40;;
59302;SDS011;45074;52.764;6.896;2023-04-25T14:31:32;5.32;;;1.90;;
59302;SDS011;45074;52.764;6.896;2023-04-25T14:33:58;4.63;;;2.05;;
59302;SDS011;45074;52.764;6.896;2023-04-25T14:36:25;5.80;;;1.60;;
59302;SDS011;45074;52.764;6.896;2023-04-25T14:38:51;4.35;;;1.20;;
59302;SDS011;45074;52.764;6.896;2023-04-25T14:41:18;5.38;;;1.50;;
59302;SDS011;45074;52.764;6.896;2023-04-25T14:43:44;7.65;;;1.50;;
59302;SDS011;45074;52.764;6.896;2023-04-25T14:46:10;7.35;;;1.40;;
59302;SDS011;45074;52.764;6.896;2023-04-25T14:48:36;6.60;;;1.48;;
59302;SDS011;45074;52.764;6.896;2023-04-25T14:51:02;6.25;;;1.40;;
59302;SDS011;45074;52.764;6.896;2023-04-25T14:53:28;4.30;;;1.38;;
59302;SDS011;45074;52.764;6.896;2023-04-25T14:55:54;5.43;;;1.55;;
59302;SDS011;45074;52.764;6.896;2023-04-25T14:58:20;4.00;;;1.20;;